Time;durP1;ratioP1;P1;durP2;ratioP2;P2;SDS_P1;SDS_P2;PMS_P1;PMS_P2;Temp;Humidity;BMP_temperature;BMP_pressure;BME280_temperature;BME280_humidity;BME280_pressure;Samples;Min_cycle;Max_cycle;Signal;HPM_P1;HPM_P2
2023/01/16 00:00:22;;;;;;;2.30;1.37;;;;;;;5.81;58.73;99150.94;6095476;23;97334;-80
2023/01/16 00:02:48;;;;;;;2.17;1.23;;;;;;;5.71;58.69;99152.16;6046743;23;101090;-80
2023/01/16 00:05:13;;;;;;;4.05;1.65;;;;;;;5.71;58.99;99169.53;6048229;23;96617;-79
2023/01/16 00:07:39;;;;;;;2.55;1.42;;;;;;;5.73;59.12;99165.13;6045849;23;96913;-80
2023/01/16 00:10:05;;;;;;;2.70;1.43;;;;;;;5.78;59.49;99184.91;6047669;23;101111;-80
2023/01/16 00:12:30;;;;;;;1.47;1.13;;;;;;;5.69;59.40;99182.59;6070058;23;101478;-80
2023/01/16 00:14:56;;;;;;;3.67;1.90;;;;;;;5.48;60.05;99183.28;6071591;23;96779;-79
2023/01/16 00:17:21;;;;;;;3.30;1.50;;;;;;;5.32;60.65;99186.34;6071086;23;97313;-83
2023/01/16 00:19:47;;;;;;;2.57;1.27;;;;;;;5.34;60.82;99194.97;6047210;23;101664;-82
2023/01/16 00:22:13;;;;;;;4.73;1.50;;;;;;;5.17;61.13;99185.06;6071173;23;100819;-82
2023/01/16 00:24:38;;;;;;;3.13;1.50;;;;;;;5.20;61.29;99184.97;6046429;23;96704;-83
2023/01/16 00:27:04;;;;;;;4.10;1.53;;;;;;;5.14;61.18;99186.91;6047584;23;96830;-79
2023/01/16 00:29:29;;;;;;;2.80;1.40;;;;;;;5.21;61.28;99191.91;6070832;23;98112;-81
2023/01/16 00:31:55;;;;;;;3.53;1.57;;;;;;;5.37;61.20;99194.03;6047040;23;101339;-82
2023/01/16 00:34:20;;;;;;;4.47;1.20;;;;;;;5.43;60.35;99184.28;6095416;23;96720;-82
2023/01/16 00:36:46;;;;;;;3.60;1.37;;;;;;;5.44;60.68;99179.94;6071653;23;96906;-82
2023/01/16 00:39:11;;;;;;;3.77;1.50;;;;;;;5.21;60.33;99139.00;6071383;23;101713;-82
2023/01/16 00:41:37;;;;;;;2.57;1.50;;;;;;;5.35;60.17;99159.38;6046772;23;100181;-82
2023/01/16 00:44:03;;;;;;;2.47;1.20;;;;;;;5.44;60.17;99165.16;6095957;23;97155;-82
2023/01/16 00:46:29;;;;;;;2.73;1.30;;;;;;;5.56;60.21;99179.56;6046905;23;97279;-82
2023/01/16 00:48:55;;;;;;;3.80;1.40;;;;;;;5.71;60.07;99172.16;6070330;23;97597;-82
2023/01/16 00:51:21;;;;;;;2.27;1.23;;;;;;;5.71;59.96;99172.16;6070517;23;101110;-82
2023/01/16 00:53:47;;;;;;;2.87;1.10;;;;;;;5.73;59.84;99166.00;6071359;23;96837;-82
2023/01/16 00:56:13;;;;;;;2.90;1.50;;;;;;;5.80;59.71;99169.25;6096369;23;97047;-82
2023/01/16 00:58:38;;;;;;;4.43;1.57;;;;;;;5.70;59.53;99150.44;6045178;23;101029;-82
2023/01/16 01:01:04;;;;;;;4.27;1.80;;;;;;;5.81;59.33;99157.91;6047115;23;101504;-82
2023/01/16 01:03:30;;;;;;;3.80;1.60;;;;;;;5.68;59.56;99127.06;6045945;23;97331;-82
2023/01/16 01:05:55;;;;;;;3.70;1.70;;;;;;;5.79;59.21;99137.16;6071670;23;96784;-81
2023/01/16 01:08:21;;;;;;;1.83;1.33;;;;;;;5.82;59.29;99136.19;6094425;23;97839;-83
2023/01/16 01:10:46;;;;;;;4.67;1.20;;;;;;;5.90;59.21;99140.25;6095644;23;100668;-81
2023/01/16 01:13:12;;;;;;;2.27;1.20;;;;;;;5.97;59.26;99140.91;6046095;23;97066;-83
2023/01/16 01:15:38;;;;;;;3.33;1.03;;;;;;;5.95;59.14;99152.28;6046231;23;97388;-83
2023/01/16 01:18:04;;;;;;;1.80;1.10;;;;;;;5.94;58.98;99142.78;6070605;23;101108;-82
2023/01/16 01:20:30;;;;;;;3.20;1.63;;;;;;;5.63;59.40;99123.75;6070469;23;101616;-81
2023/01/16 01:22:55;;;;;;;3.03;1.30;;;;;;;5.75;59.72;99126.88;6045174;23;97148;-81
2023/01/16 01:25:21;;;;;;;1.97;1.17;;;;;;;5.90;59.71;99140.25;6071029;23;96896;-82
2023/01/16 01:27:47;;;;;;;4.07;1.20;;;;;;;5.85;59.30;99131.72;6045782;23;100978;-82
2023/01/16 01:30:13;;;;;;;3.73;1.30;;;;;;;5.81;59.49;99118.84;6071964;23;98318;-83
2023/01/16 01:32:38;;;;;;;2.90;1.30;;;;;;;5.84;59.63;99109.16;6070411;23;96672;-82
2023/01/16 01:35:05;;;;;;;2.20;1.30;;;;;;;5.93;59.51;99120.19;6047771;23;97193;-82
2023/01/16 01:37:31;;;;;;;4.90;1.30;;;;;;;6.02;59.44;99114.69;6069582;23;98008;-82
2023/01/16 01:39:56;;;;;;;3.23;1.40;;;;;;;5.93;59.25;99095.00;6071538;23;97448;-81
2023/01/16 01:45:30;;;;;;;4.15;1.42;;;;;;;5.89;59.04;99119.44;6075913;23;96720;-82
2023/01/16 01:48:21;;;;;;;3.83;1.77;;;;;;;5.64;60.02;99119.41;6046051;23;101380;-82
2023/01/16 01:51:01;;;;;;;3.53;1.53;;;;;;;5.35;60.41;99112.53;6057059;23;101671;-80
2023/01/16 01:53:47;;;;;;;2.33;1.30;;;;;;;5.30;60.87;99109.25;6095802;23;97246;-82
2023/01/16 01:56:46;;;;;;;3.40;1.50;;;;;;;5.22;60.86;99109.47;6097518;23;97318;-82
2023/01/16 01:59:15;;;;;;;4.13;1.17;;;;;;;5.17;60.67;99091.41;6046327;23;101389;-81
2023/01/16 02:01:41;;;;;;;3.87;1.33;;;;;;;5.39;60.61;99103.75;6069998;23;101155;-82
2023/01/16 02:04:13;;;;;;;3.40;1.50;;;;;;;5.27;60.77;99105.00;6071025;23;97111;-81
2023/01/16 02:06:52;;;;;;;2.65;1.35;;;;;;;5.24;60.78;99109.44;6070876;23;96605;-83
2023/01/16 02:09:18;;;;;;;2.57;1.40;;;;;;;5.05;60.91;99096.16;6071181;23;98040;-81
2023/01/16 02:12:01;;;;;;;3.37;1.37;;;;;;;5.10;61.15;99104.66;6069543;23;101150;-82
2023/01/16 02:14:28;;;;;;;2.40;1.10;;;;;;;5.12;61.05;99101.13;6071272;23;96961;-82
2023/01/16 02:20:10;;;;;;;2.33;1.20;;;;;;;5.11;60.69;99085.56;6074538;23;99412;-82
2023/01/16 02:22:56;;;;;;;4.60;1.40;;;;;;;5.25;61.08;99101.59;6069288;23;101084;-82
2023/01/16 02:25:34;;;;;;;2.53;1.37;;;;;;;5.10;61.39;99100.31;6095527;23;96664;-83
2023/01/16 02:28:26;;;;;;;4.20;1.30;;;;;;;5.12;61.30;99095.03;6121835;23;96888;-81
2023/01/16 02:30:57;;;;;;;;;;;;;;;5.08;61.34;99088.25;6046704;23;101180;-82
2023/01/16 02:33:29;;;;;;;3.23;1.77;;;;;;;5.14;61.46;99098.47;6071168;23;98309;-83
2023/01/16 02:36:02;;;;;;;3.15;1.50;;;;;;;5.09;61.35;99075.22;6071627;23;96725;-83
2023/01/16 02:38:50;;;;;;;4.60;2.03;;;;;;;5.18;61.17;99092.28;6094442;23;97337;-82
2023/01/16 02:41:41;;;;;;;4.67;1.60;;;;;;;5.12;61.18;99067.31;6046323;23;100259;-82
2023/01/16 02:44:30;;;;;;;3.83;1.53;;;;;;;5.36;61.26;99096.03;6094953;23;101864;-82
2023/01/16 02:46:58;;;;;;;2.57;1.33;;;;;;;5.22;61.00;99057.44;6082854;23;96779;-81
2023/01/16 02:49:33;;;;;;;3.40;1.60;;;;;;;5.21;61.01;99076.56;6046197;23;97114;-84
2023/01/16 02:52:04;;;;;;;3.77;1.60;;;;;;;5.32;60.50;99076.22;6070745;23;99492;-83
2023/01/16 02:54:46;;;;;;;3.23;1.33;;;;;;;5.31;60.46;99067.56;6069880;23;101129;-82
2023/01/16 02:57:19;;;;;;;3.85;1.33;;;;;;;5.33;60.69;99064.91;6070410;23;96814;-81
2023/01/16 02:59:45;;;;;;;2.60;1.20;;;;;;;5.40;60.29;99064.66;6046238;23;97337;-82
2023/01/16 03:02:11;;;;;;;1.90;1.03;;;;;;;5.18;60.59;99017.69;6045804;23;101069;-83
2023/01/16 03:04:36;;;;;;;3.57;1.10;;;;;;;5.45;60.71;99049.72;6044945;23;100837;-82
2023/01/16 03:07:12;;;;;;;1.93;1.20;;;;;;;5.47;60.31;99047.09;6095239;23;97079;-82
2023/01/16 03:09:54;;;;;;;5.43;1.50;;;;;;;5.44;60.16;99035.03;6046060;23;97235;-83
2023/01/16 03:12:28;;;;;;;4.03;1.70;;;;;;;5.54;59.82;99034.72;6045898;23;101280;-82
2023/01/16 03:15:16;;;;;;;14.33;4.13;;;;;;;5.62;60.06;99028.34;6070380;23;97797;-82
2023/01/16 03:18:04;;;;;;;9.27;3.90;;;;;;;5.73;59.27;99029.72;6053330;23;96996;-82
2023/01/16 03:21:03;;;;;;;4.33;2.27;;;;;;;5.73;59.95;99028.00;6094935;23;96657;-81
2023/01/16 03:23:45;;;;;;;3.37;1.63;;;;;;;5.69;59.39;99028.97;6070539;23;98466;-82
2023/01/16 03:26:20;;;;;;;;;;;;;;;5.63;59.61;99037.84;6072262;23;101165;-82
2023/01/16 03:29:04;;;;;;;4.63;2.00;;;;;;;5.61;59.74;99036.19;6070425;23;97175;-81
2023/01/16 03:31:46;;;;;;;3.13;1.37;;;;;;;5.64;59.57;99042.16;6047333;23;97067;-82
2023/01/16 03:34:14;;;;;;;1.95;1.27;;;;;;;5.47;59.48;99022.78;6096046;23;97916;-82
2023/01/16 03:36:49;;;;;;;2.90;1.20;;;;;;;5.36;59.47;99033.59;6070319;23;101134;-81
2023/01/16 03:39:18;;;;;;;1.97;1.23;;;;;;;5.17;60.33;99038.53;6047579;23;97000;-82
2023/01/16 03:41:45;;;;;;;4.23;1.70;;;;;;;5.04;60.65;99032.88;6071515;23;96821;-82
2023/01/16 03:44:18;;;;;;;2.70;1.33;;;;;;;5.06;61.29;99033.69;6071043;23;100678;-81
2023/01/16 03:46:49;;;;;;;3.77;1.40;;;;;;;4.97;61.03;99029.63;6045683;23;99585;-83
2023/01/16 03:49:21;;;;;;;3.73;1.47;;;;;;;4.95;61.24;99014.97;6047398;23;96782;-82
2023/01/16 03:51:59;;;;;;;3.27;1.33;;;;;;;4.96;60.83;98996.69;6047449;23;97230;-82
2023/01/16 03:54:32;;;;;;;3.47;1.13;;;;;;;5.31;60.54;99025.06;6095676;23;101369;-82
2023/01/16 03:57:11;;;;;;;4.27;1.47;;;;;;;5.27;60.32;99019.13;6095654;23;100710;-81
2023/01/16 03:59:38;;;;;;;4.57;1.20;;;;;;;5.18;60.62;99029.84;6095860;23;97194;-81
2023/01/16 04:02:19;;;;;;;2.03;1.00;;;;;;;4.90;61.25;99033.31;6096893;23;97279;-82
2023/01/16 04:04:48;;;;;;;2.10;1.30;;;;;;;4.70;62.33;99035.66;6069683;23;101498;-82
2023/01/16 04:07:20;;;;;;;2.37;1.23;;;;;;;4.68;61.72;99037.47;6095179;23;101618;-82
2023/01/16 04:09:53;;;;;;;3.20;1.23;;;;;;;4.70;62.29;99028.72;6046491;23;96752;-81
2023/01/16 04:12:22;;;;;;;2.20;1.30;;;;;;;4.67;61.79;99004.56;6071735;23;97027;-81
2023/01/16 04:14:51;;;;;;;3.03;1.30;;;;;;;4.82;61.67;99029.25;6045771;23;101921;-83
2023/01/16 04:17:17;;;;;;;2.60;1.30;;;;;;;4.56;62.18;98997.09;6070775;23;100941;-81
2023/01/16 04:19:43;;;;;;;3.57;1.27;;;;;;;4.57;62.82;99017.00;6071707;23;97224;-81
2023/01/16 04:22:19;;;;;;;3.07;1.20;;;;;;;4.53;62.56;99021.44;6047226;23;97159;-83
2023/01/16 04:24:45;;;;;;;3.33;2.17;;;;;;;4.41;62.80;99014.00;6070802;23;101084;-83
2023/01/16 04:27:10;;;;;;;3.83;1.50;;;;;;;4.41;62.97;99013.16;6046031;23;99616;-82
2023/01/16 04:29:36;;;;;;;3.83;1.60;;;;;;;4.40;63.36;99011.47;6071441;23;96927;-82
2023/01/16 04:32:01;;;;;;;2.50;1.13;;;;;;;4.42;63.46;99013.13;6072371;23;97410;-81
2023/01/16 04:34:27;;;;;;;2.37;1.20;;;;;;;4.34;63.13;98996.06;6070912;23;97556;-83
2023/01/16 04:36:53;;;;;;;3.30;1.43;;;;;;;4.45;63.25;99004.38;6069665;23;100524;-83
2023/01/16 04:39:18;;;;;;;4.27;1.53;;;;;;;4.24;63.02;98967.72;6071209;23;96896;-82
2023/01/16 04:41:46;;;;;;;3.50;1.47;;;;;;;4.49;63.39;99000.78;6047077;23;97004;-83
2023/01/16 04:44:12;;;;;;;4.23;1.80;;;;;;;4.52;63.05;98995.50;6071148;23;101300;-81
2023/01/16 04:46:38;;;;;;;3.07;1.30;;;;;;;4.54;62.86;98988.53;6045479;23;101379;-82
2023/01/16 04:49:05;;;;;;;3.13;1.27;;;;;;;4.52;62.70;98988.56;6071591;23;96916;-82
2023/01/16 04:51:31;;;;;;;3.90;1.43;;;;;;;4.50;62.93;98979.94;6046609;23;96952;-84
2023/01/16 04:53:57;;;;;;;4.40;1.40;;;;;;;4.40;62.83;98955.16;6046709;23;100964;-81
2023/01/16 04:56:22;;;;;;;6.77;1.30;;;;;;;4.50;62.50;98948.75;6095846;23;97773;-83
2023/01/16 04:58:49;;;;;;;2.67;1.10;;;;;;;4.62;62.52;98973.50;6070738;23;97296;-81
2023/01/16 05:01:17;;;;;;;2.60;1.37;;;;;;;4.32;62.33;98933.75;6047920;23;96680;-81
2023/01/16 05:03:42;;;;;;;3.60;1.50;;;;;;;4.48;62.80;98960.09;6069774;23;101107;-81
2023/01/16 05:06:08;;;;;;;3.57;1.13;;;;;;;4.36;62.93;98948.31;6071078;23;97244;-83
2023/01/16 05:08:33;;;;;;;4.13;1.40;;;;;;;4.47;63.33;98948.84;6070640;23;97515;-81
2023/01/16 05:11:01;;;;;;;3.17;2.00;;;;;;;4.63;62.44;98962.25;6047801;23;96795;-82
2023/01/16 05:13:27;;;;;;;3.90;1.50;;;;;;;4.70;62.38;98944.69;6046714;23;100995;-81
2023/01/16 05:15:53;;;;;;;3.93;1.43;;;;;;;4.78;62.25;98952.25;6070361;23;101175;-81
2023/01/16 05:18:18;;;;;;;7.00;1.60;;;;;;;4.58;62.71;98950.28;6046781;23;96746;-81
2023/01/16 05:20:44;;;;;;;4.40;2.10;;;;;;;4.62;62.72;98931.91;6047137;23;98235;-82
2023/01/16 05:23:10;;;;;;;3.57;1.57;;;;;;;4.58;62.81;98939.88;6095269;23;98195;-81
2023/01/16 05:25:37;;;;;;;3.27;1.30;;;;;;;4.45;62.73;98921.22;6070578;23;97221;-82
2023/01/16 05:28:03;;;;;;;2.50;1.43;;;;;;;4.62;62.31;98923.28;6070436;23;97199;-82
2023/01/16 05:30:28;;;;;;;2.50;1.40;;;;;;;4.64;62.42;98926.69;6071250;23;96840;-80
2023/01/16 05:32:54;;;;;;;3.10;1.40;;;;;;;4.51;62.30;98893.31;6069783;23;101416;-82
2023/01/16 05:35:20;;;;;;;4.73;2.03;;;;;;;4.51;62.65;98915.84;6070769;23;101063;-81
2023/01/16 05:37:46;;;;;;;3.83;1.77;;;;;;;4.28;63.26;98919.16;6045071;23;97204;-81
2023/01/16 05:40:12;;;;;;;4.40;1.90;;;;;;;4.06;63.51;98892.97;6072103;23;96880;-81
2023/01/16 05:42:38;;;;;;;2.97;1.57;;;;;;;4.15;63.98;98892.69;6069722;23;101815;-82
2023/01/16 05:45:04;;;;;;;5.57;1.50;;;;;;;4.06;63.93;98874.78;6046595;23;101005;-83
2023/01/16 05:47:30;;;;;;;3.27;1.40;;;;;;;4.13;63.98;98878.94;6046389;23;97088;-82
2023/01/16 05:49:58;;;;;;;3.53;1.80;;;;;;;4.12;64.72;98886.75;6095511;23;96839;-81
2023/01/16 05:52:26;;;;;;;4.03;1.53;;;;;;;4.14;64.27;98883.22;6095287;23;97864;-81
2023/01/16 05:54:52;;;;;;;3.67;1.57;;;;;;;4.15;64.06;98877.09;6045456;23;101254;-80
2023/01/16 05:57:18;;;;;;;4.67;1.73;;;;;;;4.15;64.35;98877.09;6070706;23;97141;-81
2023/01/16 05:59:47;;;;;;;4.70;1.83;;;;;;;4.33;64.07;98875.69;6045960;23;97514;-80
2023/01/16 06:02:13;;;;;;;3.73;1.50;;;;;;;4.38;63.82;98878.13;6070427;23;101394;-80
2023/01/16 06:04:39;;;;;;;4.63;2.30;;;;;;;4.34;63.45;98879.16;6045013;23;99614;-80
2023/01/16 06:07:04;;;;;;;5.50;2.70;;;;;;;4.27;63.42;98873.28;6044372;23;97284;-79
2023/01/16 06:09:30;;;;;;;3.97;1.73;;;;;;;4.27;63.98;98873.28;6093362;23;97215;-79
2023/01/16 06:11:55;;;;;;;5.87;1.80;;;;;;;4.11;64.06;98862.53;6067507;23;101431;-79
2023/01/16 06:14:21;;;;;;;4.30;2.00;;;;;;;4.13;63.66;98865.94;6068344;23;101262;-78
2023/01/16 06:16:46;;;;;;;5.60;2.20;;;;;;;4.13;64.39;98868.53;6067054;23;97070;-78
2023/01/16 06:19:12;;;;;;;5.83;2.10;;;;;;;4.21;63.77;98860.47;6094038;23;97137;-81
2023/01/16 06:21:37;;;;;;;5.23;1.63;;;;;;;4.18;63.78;98852.78;6069006;23;101091;-79
2023/01/16 06:24:03;;;;;;;3.00;1.87;;;;;;;4.31;63.33;98854.13;6070767;23;101834;-78
2023/01/16 06:26:29;;;;;;;2.23;1.30;;;;;;;4.25;63.13;98834.38;6069574;23;97084;-78
2023/01/16 06:28:55;;;;;;;4.93;1.60;;;;;;;4.31;63.00;98841.97;6070779;23;96876;-82
2023/01/16 06:31:21;;;;;;;3.33;1.27;;;;;;;4.32;63.04;98848.00;6046935;23;100482;-78
2023/01/16 06:33:47;;;;;;;3.13;1.10;;;;;;;4.27;63.16;98837.75;6069580;23;101001;-81
2023/01/16 06:36:13;;;;;;;4.03;1.37;;;;;;;4.39;63.54;98840.84;6069904;23;97189;-84
2023/01/16 06:38:38;;;;;;;6.40;1.53;;;;;;;4.40;63.13;98834.78;6069501;23;96720;-79
2023/01/16 06:41:04;;;;;;;2.67;1.37;;;;;;;4.48;63.10;98827.56;6070191;23;97348;-77
2023/01/16 06:43:30;;;;;;;4.90;1.70;;;;;;;4.52;62.53;98830.03;6040552;23;101001;-82
2023/01/16 06:45:55;;;;;;;3.43;1.43;;;;;;;4.43;62.98;98825.13;6067939;23;96718;-77
2023/01/16 06:48:21;;;;;;;4.90;1.47;;;;;;;4.54;62.72;98835.19;6067679;23;97101;-78
2023/01/16 06:50:47;;;;;;;7.97;2.80;;;;;;;4.50;62.13;98831.81;6092711;23;97516;-78
2023/01/16 06:53:13;;;;;;;3.13;1.60;;;;;;;4.48;62.43;98828.44;6067136;23;101156;-78
2023/01/16 06:55:39;;;;;;;2.87;1.37;;;;;;;4.47;62.68;98837.13;6092525;23;96996;-80
2023/01/16 06:58:05;;;;;;;4.17;1.30;;;;;;;4.38;62.75;98831.38;6068473;23;97251;-80
2023/01/16 07:00:30;;;;;;;3.63;1.53;;;;;;;4.41;63.03;98831.28;6068026;23;100705;-80
2023/01/16 07:02:56;;;;;;;5.40;1.63;;;;;;;4.41;63.04;98839.91;6066366;23;102048;-79
2023/01/16 07:05:24;;;;;;;9.90;1.80;;;;;;;4.17;63.01;98805.19;6043913;23;96894;-80
2023/01/16 07:07:50;;;;;;;5.33;1.77;;;;;;;4.37;63.06;98840.09;6041889;23;97208;-81
2023/01/16 07:10:16;;;;;;;3.77;1.50;;;;;;;4.20;63.13;98823.28;6068366;23;101052;-81
2023/01/16 07:12:41;;;;;;;3.07;1.67;;;;;;;4.30;63.97;98842.00;6066463;23;101082;-80
2023/01/16 07:23:32;;;;;;;5.43;2.60;;;;;;;4.48;62.65;98802.44;6073700;23;101234;-81
2023/01/16 07:25:59;;;;;;;8.30;2.77;;;;;;;4.60;62.63;98828.94;6070388;23;97358;-80
2023/01/16 07:28:25;;;;;;;4.10;2.00;;;;;;;4.50;62.60;98813.63;6069368;23;97335;-79
2023/01/16 07:30:51;;;;;;;6.93;2.07;;;;;;;4.51;63.22;98809.31;6043903;23;100910;-84
2023/01/16 07:33:17;;;;;;;2.47;1.40;;;;;;;4.57;62.75;98810.81;6069094;23;99453;-81
2023/01/16 07:35:43;;;;;;;3.67;1.80;;;;;;;4.54;63.05;98804.00;6069752;23;97201;-81
2023/01/16 07:38:09;;;;;;;3.07;1.40;;;;;;;4.58;62.92;98804.72;6045667;23;97125;-83
2023/01/16 07:40:34;;;;;;;4.30;1.80;;;;;;;4.62;62.87;98798.53;6070696;23;101502;-82
2023/01/16 07:43:00;;;;;;;4.27;1.43;;;;;;;4.63;62.68;98788.09;6069193;23;101296;-79
2023/01/16 07:45:25;;;;;;;4.53;1.70;;;;;;;4.63;62.50;98779.44;6070711;23;97068;-78
2023/01/16 07:47:51;;;;;;;3.53;1.30;;;;;;;4.62;62.65;98783.78;6044840;23;97057;-78
2023/01/16 07:50:16;;;;;;;5.63;1.93;;;;;;;4.63;62.30;98780.28;6045968;23;101462;-78
2023/01/16 07:52:44;;;;;;;5.13;1.60;;;;;;;4.50;62.43;98755.59;6044503;23;100740;-78
2023/01/16 07:55:09;;;;;;;4.20;1.63;;;;;;;4.51;62.94;98765.13;6070739;23;96619;-78
2023/01/16 07:57:39;;;;;;;4.50;1.73;;;;;;;4.43;62.66;98744.59;6069744;23;97271;-82
2023/01/16 08:00:10;;;;;;;3.63;1.40;;;;;;;4.56;62.41;98773.59;6069869;23;101289;-83
2023/01/16 08:02:39;;;;;;;10.10;2.13;;;;;;;4.50;62.86;98759.06;6070164;23;101235;-84
2023/01/16 08:05:05;;;;;;;3.93;1.77;;;;;;;4.60;62.36;98763.97;6070998;23;97286;-85
2023/01/16 08:07:31;;;;;;;3.53;1.90;;;;;;;4.66;61.97;98749.00;6045662;22;97140;-82
2023/01/16 08:09:57;;;;;;;5.53;2.63;;;;;;;4.66;62.22;98738.59;6070747;23;97253;-85
2023/01/16 08:12:22;;;;;;;5.57;2.20;;;;;;;4.72;61.82;98716.72;6046771;23;101415;-83
2023/01/16 08:14:48;;;;;;;7.90;2.10;;;;;;;4.94;61.83;98733.22;6071039;23;97060;-84
2023/01/16 08:17:13;;;;;;;5.90;2.20;;;;;;;5.17;61.72;98740.19;6046981;23;96961;-82
2023/01/16 08:19:39;;;;;;;8.07;2.40;;;;;;;5.38;61.41;98737.69;6069742;23;100743;-82
2023/01/16 08:22:04;;;;;;;5.77;2.17;;;;;;;5.51;60.07;98728.53;6070603;23;101568;-83
2023/01/16 08:24:30;;;;;;;7.40;2.20;;;;;;;5.62;59.22;98734.16;6046412;23;96746;-83
2023/01/16 08:26:56;;;;;;;5.93;2.57;;;;;;;5.65;59.28;98721.03;6094795;23;97336;-84
2023/01/16 08:29:23;;;;;;;5.43;2.10;;;;;;;5.88;58.19;98724.47;6094802;23;98469;-76
2023/01/16 08:31:48;;;;;;;5.90;2.40;;;;;;;5.91;58.67;98729.56;6070647;23;97450;-76
2023/01/16 08:34:14;;;;;;;6.93;2.00;;;;;;;6.04;59.04;98729.94;6095604;23;97145;-76
2023/01/16 08:36:39;;;;;;;6.43;2.13;;;;;;;6.34;58.19;98730.41;6046400;23;97158;-81
2023/01/16 08:39:05;;;;;;;7.90;2.00;;;;;;;6.71;57.82;98729.69;6047828;23;100884;-78
2023/01/16 08:52:30;;;;;;;4.85;1.60;;;;;;;7.85;53.75;98714.91;6075658;23;101065;-78
2023/01/16 08:54:57;;;;;;;4.28;1.63;;;;;;;8.03;52.93;98720.13;6047853;23;96673;-79
2023/01/16 08:57:23;;;;;;;6.53;2.17;;;;;;;7.99;52.87;98684.63;6048029;23;97164;-78
2023/01/16 08:59:49;;;;;;;6.60;1.98;;;;;;;8.22;52.03;98701.78;6070690;23;101220;-78
2023/01/16 09:02:14;;;;;;;4.65;2.03;;;;;;;8.33;51.72;98695.09;6068722;23;101955;-85
2023/01/16 09:04:40;;;;;;;4.50;1.63;;;;;;;8.46;51.12;98697.97;6061108;23;97217;-86
2023/01/16 09:07:06;;;;;;;5.13;1.88;;;;;;;8.48;51.27;98700.50;6070199;23;97037;-85
2023/01/16 09:09:31;;;;;;;5.00;1.42;;;;;;;8.64;51.52;98690.97;6092848;23;97858;-85
2023/01/16 09:14:42;;;;;;;3.42;1.45;;;;;;;8.77;50.68;98676.31;6071769;23;96667;-84
2023/01/16 09:17:08;;;;;;;4.55;1.80;;;;;;;9.01;50.76;98673.31;6044120;23;97140;-84
2023/01/16 09:19:34;;;;;;;3.80;1.35;;;;;;;9.14;50.12;98666.50;6068188;23;97372;-84
2023/01/16 09:22:00;;;;;;;6.55;1.80;;;;;;;9.40;49.54;98645.91;6068667;23;97589;-84
2023/01/16 09:24:26;;;;;;;4.15;2.00;;;;;;;9.56;48.54;98654.56;6044459;23;97182;-84
2023/01/16 09:26:51;;;;;;;6.35;2.30;;;;;;;9.47;48.87;98642.00;6092424;23;96733;-84
2023/01/16 09:29:17;;;;;;;3.10;1.77;;;;;;;9.57;48.48;98640.56;6067349;23;99645;-85
2023/01/16 09:31:43;;;;;;;3.90;1.70;;;;;;;9.58;48.34;98639.63;6069363;23;97780;-84
2023/01/16 09:34:08;;;;;;;3.65;1.65;;;;;;;9.57;48.03;98629.19;6045757;23;97001;-83
2023/01/16 09:36:34;;;;;;;5.97;1.30;;;;;;;9.69;48.21;98633.78;6045795;23;96891;-83
2023/01/16 09:38:59;;;;;;;4.20;1.70;;;;;;;9.75;47.75;98629.00;6044468;23;101693;-84
2023/01/16 09:44:13;;;;;;;6.45;1.70;;;;;;;10.01;48.66;98607.47;6074791;23;96650;-86
2023/01/16 09:46:43;;;;;;;4.50;2.00;;;;;;;10.34;48.19;98602.88;6069668;23;97219;-82
2023/01/16 09:49:18;;;;;;;5.82;2.17;;;;;;;10.64;47.03;98597.53;6069073;23;101963;-87
2023/01/16 09:58:35;;;;;;;5.28;1.65;;;;;;;10.90;46.73;98605.56;6068855;23;101400;-83
2023/01/16 10:00:11;;;;;;;3.92;2.08;;;;;;;11.02;44.70;98585.56;6075139;23;99619;-84
2023/01/16 10:02:37;;;;;;;6.28;2.13;;;;;;;11.01;45.66;98591.78;6071063;23;97867;-86
2023/01/16 10:05:04;;;;;;;3.65;1.67;;;;;;;11.18;44.93;98574.94;6047857;23;96776;-84
2023/01/16 10:07:29;;;;;;;3.75;1.63;;;;;;;11.09;45.22;98576.38;6072338;23;96955;-86
2023/01/16 10:10:01;;;;;;;4.63;1.70;;;;;;;11.07;45.08;98573.84;6094685;23;101081;-86
2023/01/16 10:12:29;;;;;;;;;;;;;;;10.96;45.00;98559.72;6046042;23;100547;-86
2023/01/16 10:15:04;;;;;;;6.55;1.90;;;;;;;10.94;45.83;98556.31;6071185;23;97050;-85
2023/01/16 10:17:35;;;;;;;3.80;1.50;;;;;;;10.84;44.82;98528.03;6072473;23;96690;-85
2023/01/16 10:20:10;;;;;;;5.25;1.85;;;;;;;10.89;44.94;98546.13;6094930;23;98344;-87
2023/01/16 10:22:42;;;;;;;2.78;1.50;;;;;;;10.75;45.05;98546.16;6070141;23;101391;-85
2023/01/16 10:25:08;;;;;;;5.10;1.55;;;;;;;10.61;45.97;98528.66;6068887;23;96756;-86
2023/01/16 10:27:44;;;;;;;2.95;1.67;;;;;;;10.68;45.44;98524.72;6070908;23;96768;-85
2023/01/16 10:30:13;;;;;;;3.88;1.50;;;;;;;10.68;45.48;98519.47;6070847;23;101052;-85
2023/01/16 10:32:52;;;;;;;3.55;1.30;;;;;;;10.56;46.08;98505.34;6094484;23;98290;-85
2023/01/16 10:35:21;;;;;;;3.67;1.40;;;;;;;10.29;46.42;98509.66;6046632;23;97166;-86
2023/01/16 10:37:47;;;;;;;6.78;2.10;;;;;;;10.05;46.84;98496.25;6070418;23;97249;-86
2023/01/16 10:40:25;;;;;;;3.35;1.73;;;;;;;9.98;47.15;98501.03;6071806;23;99830;-86
2023/01/16 10:51:38;;;;;;;6.15;1.50;;;;;;;9.83;46.12;98478.34;6095102;23;101349;-87
2023/01/16 10:54:04;;;;;;;3.78;1.45;;;;;;;9.67;46.82;98476.66;6093750;23;97905;-86
2023/01/16 10:56:32;;;;;;;3.65;1.52;;;;;;;9.60;47.07;98469.22;6045658;23;96752;-86
2023/01/16 10:58:58;;;;;;;6.18;1.92;;;;;;;9.49;47.45;98462.03;6071027;23;97258;-87
2023/01/16 11:01:25;;;;;;;3.90;1.85;;;;;;;9.38;47.67;98446.94;6045357;23;101055;-86
2023/01/16 11:03:53;;;;;;;6.13;2.13;;;;;;;9.39;48.15;98446.00;6068366;23;99945;-87
2023/01/16 11:06:21;;;;;;;3.92;2.75;;;;;;;9.32;49.06;98410.63;6070303;23;96944;-86
2023/01/16 11:08:49;;;;;;;4.15;1.90;;;;;;;9.55;48.61;98435.47;6041765;23;97295;-87
2023/01/16 11:19:30;;;;;;;2.83;1.50;;;;;;;9.12;47.09;98405.72;6074765;23;97209;-88
2023/01/16 11:22:07;;;;;;;6.22;2.63;;;;;;;8.99;48.73;98393.38;6047005;23;100270;-89
2023/01/16 11:24:35;;;;;;;4.65;2.20;;;;;;;8.90;49.44;98370.34;6048138;23;100955;-89
2023/01/16 11:27:04;;;;;;;7.18;2.38;;;;;;;9.13;50.13;98400.41;6047234;23;97078;-88
2023/01/16 11:29:37;;;;;;;8.20;3.20;;;;;;;9.12;49.94;98383.00;6073066;23;96885;-87
2023/01/16 11:32:09;;;;;;;8.63;2.78;;;;;;;9.16;49.48;98375.81;6072524;23;98364;-86
2023/01/16 11:34:37;;;;;;;8.80;2.47;;;;;;;9.02;49.36;98361.78;6095492;23;97335;-85
2023/01/16 11:37:05;;;;;;;5.97;2.10;;;;;;;8.95;49.83;98359.59;6070193;23;96754;-83
2023/01/16 11:39:33;;;;;;;5.85;2.28;;;;;;;8.92;48.64;98344.09;6040506;23;97011;-82
2023/01/16 11:47:41;;;;;;;8.15;2.38;;;;;;;8.79;51.43;98342.19;6098144;23;97323;-83
2023/01/16 11:50:32;;;;;;;10.02;3.00;;;;;;;8.71;50.80;98333.09;6044199;23;97304;-83
2023/01/16 11:52:58;;;;;;;6.45;2.33;;;;;;;8.53;51.68;98329.78;6068979;23;101270;-83
2023/01/16 11:55:33;;;;;;;3.97;2.38;;;;;;;8.51;51.54;98306.31;6095485;23;97367;-83
2023/01/16 11:58:14;;;;;;;4.13;2.00;;;;;;;8.41;51.50;98323.47;6094862;23;97272;-83
2023/01/16 12:00:42;;;;;;;5.53;2.43;;;;;;;8.44;51.01;98312.84;6096683;23;97028;-84
2023/01/16 12:03:35;;;;;;;6.43;1.83;;;;;;;8.44;52.08;98315.47;6069563;23;100369;-84
2023/01/16 12:06:25;;;;;;;5.05;2.20;;;;;;;8.55;50.79;98313.06;6067839;23;100123;-81
2023/01/16 12:09:24;;;;;;;7.28;2.30;;;;;;;8.51;50.63;98301.09;6011884;23;97065;-82
2023/01/16 12:14:17;;;;;;;4.47;2.13;;;;;;;8.35;51.14;98297.66;6068573;23;97227;-83
2023/01/16 12:14:51;;;;;;;6.03;1.92;;;;;;;8.29;51.88;98285.75;6072239;23;101445;-84
2023/01/16 12:18:13;;;;;;;6.32;2.25;;;;;;;8.25;51.95;98286.00;6070178;23;98341;-83
2023/01/16 12:20:49;;;;;;;3.97;2.40;;;;;;;8.28;52.09;98285.84;6054645;23;97258;-84
2023/01/16 12:23:45;;;;;;;5.28;2.38;;;;;;;8.24;52.24;98276.50;6071277;23;97222;-83
2023/01/16 12:26:29;;;;;;;5.65;3.00;;;;;;;8.10;53.20;98251.97;6070080;23;101625;-83
2023/01/16 12:28:58;;;;;;;6.57;2.65;;;;;;;8.09;52.38;98244.25;6071032;23;100868;-84
2023/01/16 12:31:48;;;;;;;3.97;2.47;;;;;;;8.19;52.56;98255.84;6097438;23;97057;-85
2023/01/16 12:34:32;;;;;;;6.28;2.55;;;;;;;8.22;52.91;98250.44;6044548;23;96782;-83
2023/01/16 12:37:01;;;;;;;8.55;3.38;;;;;;;8.20;52.62;98243.59;6068807;23;101167;-84
2023/01/16 12:39:45;;;;;;;7.25;2.63;;;;;;;8.15;52.35;98234.28;6070126;23;101763;-84
2023/01/16 12:45:23;;;;;;;5.72;2.20;;;;;;;8.05;51.86;98230.47;6095162;23;97339;-83
2023/01/16 12:47:58;;;;;;;6.45;2.63;;;;;;;7.97;51.75;98230.09;6069178;23;101702;-83
2023/01/16 12:50:29;;;;;;;4.35;2.22;;;;;;;7.89;52.77;98229.69;6068091;23;101110;-83
2023/01/16 12:53:04;;;;;;;4.57;2.10;;;;;;;7.82;52.65;98221.31;6068470;23;97138;-83